Currently 67°F in Simi Valley, California, USA
67°F
67°F / 63°F
3 mph SW
0.00"
Friday, September 18, 2020 6:20 AM PDT

Simi Valley, California Weather Summary
Last 36 Hours

Temperature Winds Hourly Humidity Dewpoint
Time Report Norm Report Norm Max Gusts Precip. Rpt. Norm Rpt. Norm Pressure
1Fri 06:20 AM  67.2°F  61°F  3 mph SW  1 mph  6 mph  0.00"  38%  71%  40°F  51°F  29.90"
Fri 06:00 AM  66.7°F  61°F  5 mph E  1 mph  6 mph  0.00"  40%  70%  41°F  51°F  29.90"
Fri 05:00 AM  63.8°F  61°F  2 mph W  1 mph  none  0.00"  49%  69%  44°F  51°F  29.89"
Fri 04:00 AM  63.8°F  62°F  calm  1 mph  3 mph  0.00"  48%  68%  43°F  51°F  29.88"
Fri 03:00 AM  63.4°F  63°F  calm  2 mph  4 mph  0.00"  47%  67%  42°F  51°F  29.89"
3Fri 02:51 AM  63.3°F  63°F  calm  2 mph  4 mph  ----  47%  67%  42°F  51°F  29.89"
Fri 02:00 AM  65.6°F  63°F  calm  1 mph  3 mph  0.00"  44%  66%  42°F  51°F  29.90"
Fri 01:00 AM  67.3°F  64°F  calm  1 mph  3 mph  0.00"  40%  65%  41°F  52°F  29.91"
2Fri 12:52 AM  67.3°F  64°F  calm  1 mph  3 mph  ----  39%  65%  41°F  52°F  29.91"
Fri 12:00 AM  66.6°F  65°F  calm  2 mph  none  0.00"  40%  64%  41°F  52°F  29.90"
Thu 11:00 PM  67.4°F  66°F  calm  1 mph  none  0.00"  38%  63%  40°F  53°F  29.91"
Thu 10:00 PM  70.4°F  68°F  calm  1 mph  4 mph  0.00"  34%  62%  40°F  54°F  29.92"
Thu 09:00 PM  71.2°F  70°F  calm  1 mph  2 mph  0.00"  32%  61%  39°F  55°F  29.93"
Thu 08:00 PM  74.8°F  72°F  calm  2 mph  7 mph  0.00"  33%  59%  43°F  57°F  29.92"
Thu 07:00 PM  79.7°F  75°F  4 mph W  3 mph  6 mph  0.00"  28%  54%  43°F  57°F  29.91"
Thu 06:00 PM  83.8°F  79°F  2 mph W  5 mph  10 mph  0.00"  22%  48%  40°F  57°F  29.90"
Thu 05:00 PM  87.9°F  81°F  4 mph W  6 mph  15 mph  0.00"  15%  45%  33°F  57°F  29.90"
Thu 04:00 PM  90.3°F  83°F  6 mph W  7 mph  17 mph  0.00"  14%  43%  34°F  57°F  29.90"
Thu 03:00 PM  90.7°F  84°F  11 mph W  7 mph  17 mph  0.00"  12%  41%  30°F  57°F  29.92"
Thu 02:00 PM  95.9°F  84°F  7 mph SW  7 mph  10 mph  0.00"  10%  41%  29°F  57°F  29.92"
Thu 01:00 PM  93.7°F  84°F  6 mph SE  6 mph  10 mph  0.00"  12%  40%  32°F  56°F  29.94"
Thu 12:00 PM  90.2°F  82°F  3 mph SE  5 mph  9 mph  0.00"  16%  43%  36°F  57°F  29.96"
Thu 11:00 AM  83.9°F  79°F  5 mph SE  4 mph  9 mph  0.00"  24%  48%  42°F  57°F  29.98"
Thu 10:00 AM  76.5°F  74°F  1 mph S  3 mph  1 mph  0.00"  35%  57%  46°F  57°F  29.99"
Thu 09:00 AM  66.3°F  68°F  calm  1 mph  3 mph  0.00"  46%  67%  44°F  56°F  29.98"
Thu 08:00 AM  60.4°F  63°F  calm  1 mph  5 mph  0.00"  46%  73%  39°F  53°F  29.97"
Thu 07:00 AM  59.2°F  60°F  calm  1 mph  none  0.00"  47%  73%  38°F  51°F  29.95"
Thu 06:00 AM  59.5°F  61°F  calm  1 mph  none  0.00"  45%  72%  37°F  51°F  29.93"
Thu 05:00 AM  60.1°F  61°F  calm  1 mph  2 mph  0.00"  42%  70%  36°F  51°F  29.93"
Thu 04:00 AM  60.4°F  62°F  calm  1 mph  4 mph  0.00"  38%  69%  34°F  51°F  29.92"
Thu 03:00 AM  60.5°F  63°F  1 mph SE  2 mph  5 mph  0.00"  39%  68%  34°F  52°F  29.93"
Thu 02:00 AM  61.1°F  63°F  calm  1 mph  none  0.00"  37%  67%  34°F  52°F  29.94"
Thu 01:00 AM  63.5°F  64°F  calm  1 mph  7 mph  0.00"  32%  66%  32°F  52°F  29.95"
Thu 12:00 AM  64.0°F  65°F  calm  1 mph  5 mph  0.00"  31%  65%  31°F  53°F  29.96"
Wed 11:00 PM  65.3°F  66°F  2 mph NE  1 mph  7 mph  0.00"  28%  65%  30°F  53°F  29.97"
Wed 10:00 PM  67.8°F  68°F  calm  1 mph  5 mph  0.00"  29%  63%  33°F  54°F  29.97"
Wed 09:00 PM  70.0°F  70°F  2 mph SE  1 mph  7 mph  0.00"  28%  62%  34°F  56°F  29.98"
Wed 08:00 PM  74.5°F  72°F  3 mph SW  2 mph  5 mph  0.00"  25%  60%  35°F  57°F  29.96"
Wed 07:00 PM  82.1°F  75°F  calm  3 mph  4 mph  0.00"  23%  55%  40°F  57°F  29.95"

  1. Current weather data. No green row appears if the current weather data is also the high or low for the current day.
  2. High temperature for the current day.
  3. Low temperature for the current day.

The Simi Valley, California weather pages are a service of WeatherCurrents.
Copyright ©2020  WeatherCurrents. All rights reserved. - Submit questions and comments - Privacy Policy

This page automatically refreshes every 10 minutes.